Time;durP1;ratioP1;P1;durP2;ratioP2;P2;SDS_P1;SDS_P2;PMS_P1;PMS_P2;Temp;Humidity;BMP_temperature;BMP_pressure;BME280_temperature;BME280_humidity;BME280_pressure;Samples;Min_cycle;Max_cycle;Signal;HPM_P1;HPM_P2
2022/03/27 00:00:48;;;;;;;14.80;6.35;;;;;;;11.87;57.71;100548.16;5096235;28;20040;-66
2022/03/27 00:03:17;;;;;;;;;;;;;;;12.01;57.96;100549.97;5096817;28;20056;-65
2022/03/27 00:05:46;;;;;;;13.85;6.10;;;;;;;12.15;58.05;100551.75;5096134;28;19920;-66
2022/03/27 00:08:15;;;;;;;9.40;5.32;;;;;;;12.24;57.97;100560.34;5096419;28;20078;-66
2022/03/27 00:13:24;;;;;;;12.10;5.78;;;;;;;12.47;58.29;100563.06;5095943;28;20055;-65
2022/03/27 00:15:53;;;;;;;10.07;5.73;;;;;;;12.57;58.66;100567.41;5095880;28;20094;-65
2022/03/27 00:18:22;;;;;;;9.93;5.88;;;;;;;12.60;59.11;100563.13;5095734;28;20056;-66
2022/03/27 00:20:52;;;;;;;9.65;5.68;;;;;;;12.54;59.42;100552.00;5096172;28;20051;-66
2022/03/27 00:23:21;;;;;;;9.65;5.47;;;;;;;12.61;59.80;100575.09;5095693;28;20429;-65
2022/03/27 00:25:52;;;;;;;8.73;5.00;;;;;;;12.56;60.40;100575.91;5095785;28;20498;-66
2022/03/27 00:28:21;;;;;;;9.73;5.43;;;;;;;12.58;60.80;100585.31;5095566;28;20418;-66
2022/03/27 00:30:50;;;;;;;6.73;3.73;;;;;;;12.58;62.07;100579.34;5095668;28;20048;-65
2022/03/27 00:33:19;;;;;;;7.88;4.82;;;;;;;12.54;62.67;100593.84;5095508;28;20050;-66
2022/03/27 00:35:48;;;;;;;8.73;4.00;;;;;;;12.49;62.91;100592.09;5095895;28;20044;-66
2022/03/27 00:38:18;;;;;;;6.15;3.20;;;;;;;12.46;62.95;100597.19;5095751;28;20311;-66
2022/03/27 00:40:46;;;;;;;5.28;2.90;;;;;;;12.42;62.64;100604.00;5095800;28;20533;-65
2022/03/27 00:43:17;;;;;;;4.90;2.90;;;;;;;12.37;62.40;100602.25;5095347;28;20055;-65
2022/03/27 00:45:47;;;;;;;5.70;2.05;;;;;;;12.26;62.31;100607.28;5095368;28;20052;-65
2022/03/27 00:48:17;;;;;;;;;;;;;;;12.19;62.26;100609.81;5095803;28;20048;-66
2022/03/27 00:50:47;;;;;;;5.70;1.90;;;;;;;12.13;62.33;100610.63;5094100;28;19920;-65
2022/03/27 00:53:16;;;;;;;3.47;1.88;;;;;;;12.13;62.15;100614.88;5095248;28;20131;-66
2022/03/27 00:55:46;;;;;;;4.37;2.10;;;;;;;12.09;62.10;100607.16;5095093;28;20040;-66
2022/03/27 00:58:16;;;;;;;;;;;;;;;12.07;62.16;100605.44;5095387;28;20285;-65
2022/03/27 01:00:57;;;;;;;3.67;1.92;;;;;;;12.04;62.26;100606.25;5095094;28;20011;-65
2022/03/27 01:03:27;;;;;;;4.45;2.20;;;;;;;11.90;62.14;100589.13;5095039;28;20058;-65
2022/03/27 01:05:58;;;;;;;5.95;2.30;;;;;;;12.01;62.17;100601.16;5095184;28;20055;-66
2022/03/27 01:11:12;;;;;;;4.72;2.00;;;;;;;11.95;62.20;100611.31;5095197;28;20040;-65
2022/03/27 01:13:48;;;;;;;4.30;2.10;;;;;;;11.93;61.92;100607.88;5094854;28;20060;-65
2022/03/27 01:16:33;;;;;;;3.85;2.00;;;;;;;11.87;62.11;100610.41;5094729;28;20139;-66
2022/03/27 01:19:04;;;;;;;4.63;2.33;;;;;;;11.83;62.41;100616.31;5094738;28;20082;-66
2022/03/27 01:21:37;;;;;;;;;;;;;;;11.82;62.33;100613.75;5095379;28;20047;-66
2022/03/27 01:24:06;;;;;;;3.58;2.03;;;;;;;11.80;62.23;100618.00;5094647;28;19919;-65
2022/03/27 01:26:35;;;;;;;4.57;2.40;;;;;;;11.69;62.65;100615.34;5094822;28;20044;-65
2022/03/27 01:29:05;;;;;;;5.20;2.22;;;;;;;11.65;62.72;100623.78;5094547;28;20048;-66
2022/03/27 01:31:35;;;;;;;3.70;2.13;;;;;;;11.60;62.78;100625.44;5094497;28;20093;-66
2022/03/27 01:34:05;;;;;;;4.28;2.00;;;;;;;11.48;63.39;100633.00;5094535;28;20071;-65
2022/03/27 01:36:37;;;;;;;5.78;2.58;;;;;;;11.38;63.30;100631.16;5094292;28;20036;-66
2022/03/27 01:39:08;;;;;;;3.95;2.25;;;;;;;11.25;63.87;100629.31;5093632;28;20127;-65
2022/03/27 01:41:38;;;;;;;5.57;2.78;;;;;;;11.14;64.38;100628.31;5095237;28;20474;-66
2022/03/27 01:44:08;;;;;;;5.70;2.30;;;;;;;11.08;64.78;100634.22;5094288;28;20521;-66
2022/03/27 01:46:39;;;;;;;4.10;2.28;;;;;;;11.06;64.44;100642.72;5094227;28;20131;-66
2022/03/27 01:49:11;;;;;;;4.72;2.60;;;;;;;11.08;64.41;100647.00;5094217;28;20048;-66
2022/03/27 01:51:43;;;;;;;4.80;2.60;;;;;;;11.14;64.25;100653.88;5094514;28;20055;-66
2022/03/27 01:54:13;;;;;;;4.88;2.35;;;;;;;11.23;63.55;100653.97;5094699;28;20389;-66
2022/03/27 01:56:43;;;;;;;5.15;3.00;;;;;;;11.27;62.72;100663.41;5094049;28;20126;-66
2022/03/27 01:59:12;;;;;;;4.88;2.58;;;;;;;11.31;62.86;100657.50;5094326;28;20064;-65
2022/03/27 02:01:41;;;;;;;5.45;2.72;;;;;;;11.32;62.53;100672.88;5094278;28;20040;-65
2022/03/27 02:04:11;;;;;;;6.85;2.88;;;;;;;11.33;62.46;100674.56;5093974;28;20052;-66
2022/03/27 02:06:43;;;;;;;4.80;3.05;;;;;;;11.25;62.37;100675.31;5094157;28;20539;-65
2022/03/27 02:09:12;;;;;;;6.03;2.90;;;;;;;11.25;62.44;100676.16;5093920;28;20493;-65
2022/03/27 02:11:42;;;;;;;5.25;2.63;;;;;;;11.28;62.38;100685.56;5094470;28;20055;-66
2022/03/27 02:14:12;;;;;;;5.20;2.85;;;;;;;11.16;63.09;100686.28;5093851;28;20065;-66
2022/03/27 02:16:42;;;;;;;5.50;2.65;;;;;;;11.17;63.13;100687.13;5093812;28;20047;-66
2022/03/27 02:19:12;;;;;;;6.18;3.15;;;;;;;11.08;63.24;100692.13;5093722;28;20058;-66
2022/03/27 02:21:44;;;;;;;5.88;2.92;;;;;;;10.99;64.04;100699.69;5094349;28;20075;-65
2022/03/27 02:24:13;;;;;;;5.95;3.15;;;;;;;10.88;63.90;100698.66;5093767;28;20051;-65
2022/03/27 02:26:46;;;;;;;6.80;3.35;;;;;;;10.87;63.98;100702.88;5093705;28;20036;-66
2022/03/27 02:29:16;;;;;;;8.40;3.30;;;;;;;10.74;63.64;100699.31;5092390;28;20040;-66
2022/03/27 02:31:46;;;;;;;7.38;3.63;;;;;;;10.76;63.53;100710.41;5093959;28;20494;-65
2022/03/27 02:34:16;;;;;;;7.60;3.47;;;;;;;10.74;63.46;100696.75;5093615;28;20048;-66
2022/03/27 02:36:46;;;;;;;7.32;3.72;;;;;;;10.59;63.70;100701.63;5093560;28;20493;-65
2022/03/27 02:39:15;;;;;;;7.22;3.67;;;;;;;10.34;64.25;100689.31;5093258;28;20048;-65
2022/03/27 02:41:46;;;;;;;;;;;;;;;10.46;63.98;100709.09;5093953;28;20051;-66
2022/03/27 02:44:16;;;;;;;8.10;3.75;;;;;;;10.35;63.84;100713.13;5093535;28;19927;-65
2022/03/27 02:46:45;;;;;;;7.75;4.15;;;;;;;10.17;64.72;100715.38;5093484;28;20118;-66
2022/03/27 02:49:14;;;;;;;7.07;4.15;;;;;;;10.19;64.02;100711.16;5093571;28;20042;-66
2022/03/27 02:51:45;;;;;;;6.90;4.30;;;;;;;10.08;64.50;100721.13;5097878;28;20040;-66
2022/03/27 02:54:16;;;;;;;9.00;3.88;;;;;;;9.91;64.66;100722.53;5097841;28;20131;-66
2022/03/27 02:56:46;;;;;;;10.05;3.97;;;;;;;9.81;65.16;100721.47;5098624;28;20390;-65
2022/03/27 02:59:16;;;;;;;7.03;3.75;;;;;;;9.53;65.40;100700.53;5097285;28;20502;-66
2022/03/27 03:01:45;;;;;;;8.75;4.43;;;;;;;9.62;65.67;100723.66;5097695;28;20047;-66
2022/03/27 03:04:15;;;;;;;6.43;3.38;;;;;;;9.56;65.34;100718.44;5097645;28;20040;-65
2022/03/27 03:06:44;;;;;;;7.93;3.70;;;;;;;9.51;64.63;100714.94;5097279;28;20493;-65
2022/03/27 03:09:15;;;;;;;8.70;4.32;;;;;;;9.44;65.77;100714.81;5097453;28;20393;-66
2022/03/27 03:11:44;;;;;;;9.05;4.18;;;;;;;9.43;65.11;100717.31;5096074;28;20520;-65
2022/03/27 03:14:13;;;;;;;9.75;4.38;;;;;;;9.36;64.71;100721.44;5097105;28;20040;-65
2022/03/27 03:16:54;;;;;;;10.15;4.80;;;;;;;9.32;64.64;100724.75;5096862;28;20062;-66
2022/03/27 03:19:24;;;;;;;10.52;4.70;;;;;;;9.32;64.50;100726.44;5097738;28;20390;-65
2022/03/27 03:21:53;;;;;;;9.75;5.18;;;;;;;9.28;65.05;100715.34;5097226;28;20039;-65
2022/03/27 03:24:26;;;;;;;7.20;4.60;;;;;;;9.20;64.95;100709.22;5097271;28;20036;-65
2022/03/27 03:26:56;;;;;;;11.38;5.65;;;;;;;9.21;64.45;100713.47;5096969;28;20048;-65
2022/03/27 03:29:25;;;;;;;8.07;4.50;;;;;;;9.19;64.22;100715.13;5096920;28;20048;-66
2022/03/27 03:31:54;;;;;;;10.57;5.40;;;;;;;9.10;63.03;100712.38;5096615;28;20074;-65
2022/03/27 03:34:23;;;;;;;10.13;5.17;;;;;;;9.09;63.07;100725.97;5097375;28;20040;-65
2022/03/27 03:36:52;;;;;;;11.13;6.27;;;;;;;9.04;63.71;100726.69;5096832;28;20850;-65
2022/03/27 03:39:21;;;;;;;7.38;4.25;;;;;;;8.97;64.12;100724.81;5096653;28;20044;-65
2022/03/27 03:41:52;;;;;;;;;;;;;;;9.10;63.73;100727.66;5097082;28;20048;-65
2022/03/27 03:44:26;;;;;;;10.65;5.45;;;;;;;8.90;63.94;100731.44;5096533;28;19920;-65
2022/03/27 03:46:56;;;;;;;10.10;4.90;;;;;;;8.84;64.01;100727.91;5096495;28;20047;-65
2022/03/27 03:49:25;;;;;;;9.77;5.28;;;;;;;8.78;64.13;100733.75;5096790;28;20048;-66
2022/03/27 03:51:54;;;;;;;9.38;4.47;;;;;;;8.71;64.17;100747.97;5096696;28;20505;-66
2022/03/27 03:54:23;;;;;;;12.45;6.53;;;;;;;8.78;63.90;100744.75;5096216;28;20044;-66
2022/03/27 03:56:54;;;;;;;13.85;6.32;;;;;;;8.66;63.14;100743.63;5096365;28;20048;-66
2022/03/27 03:59:23;;;;;;;12.02;6.35;;;;;;;8.60;63.12;100751.09;5096255;28;20070;-66
2022/03/27 04:01:58;;;;;;;13.98;6.75;;;;;;;8.61;62.73;100752.84;5095733;28;20081;-65
2022/03/27 04:04:30;;;;;;;13.00;6.35;;;;;;;8.60;63.06;100751.09;5096176;28;20048;-66
2022/03/27 04:06:59;;;;;;;12.93;6.40;;;;;;;8.56;63.12;100754.41;5096220;28;20071;-66
2022/03/27 04:09:29;;;;;;;13.73;7.47;;;;;;;8.43;62.98;100754.91;5096045;28;20044;-65
2022/03/27 04:12:01;;;;;;;13.60;7.05;;;;;;;8.41;62.46;100746.38;5096083;28;20040;-65
2022/03/27 04:14:34;;;;;;;13.57;6.47;;;;;;;8.36;62.51;100745.41;5095998;28;20563;-65
2022/03/27 04:17:03;;;;;;;13.50;7.28;;;;;;;8.37;63.05;100757.31;5095691;28;20465;-65
2022/03/27 04:19:32;;;;;;;13.70;6.68;;;;;;;8.45;62.99;100753.25;5095828;28;20048;-65
2022/03/27 04:22:01;;;;;;;14.70;7.33;;;;;;;8.48;63.25;100764.38;5095901;28;20036;-66
2022/03/27 04:24:30;;;;;;;13.17;6.97;;;;;;;8.27;62.78;100765.53;5096078;28;20093;-65
2022/03/27 04:27:01;;;;;;;8.85;5.40;;;;;;;8.28;63.74;100769.81;5095785;28;20372;-65
2022/03/27 04:29:30;;;;;;;14.82;7.93;;;;;;;8.36;62.89;100773.38;5096041;28;20494;-65
2022/03/27 04:31:59;;;;;;;10.15;5.05;;;;;;;8.25;62.95;100779.84;5095956;28;20040;-65
2022/03/27 04:34:28;;;;;;;12.32;7.35;;;;;;;8.24;62.95;100788.28;5095871;28;20047;-65
2022/03/27 04:36:57;;;;;;;14.35;7.45;;;;;;;8.18;63.77;100788.16;5095884;28;20058;-65
2022/03/27 04:39:25;;;;;;;14.27;7.80;;;;;;;7.99;63.89;100792.72;5095430;28;20056;-65
2022/03/27 04:41:54;;;;;;;12.98;7.25;;;;;;;8.06;63.94;100793.75;5095761;28;20045;-65
2022/03/27 04:44:25;;;;;;;11.43;6.33;;;;;;;8.05;62.67;100797.13;5095352;28;20040;-65
2022/03/27 04:46:54;;;;;;;12.48;6.95;;;;;;;7.96;63.74;100801.97;5095484;28;20048;-65
2022/03/27 04:49:23;;;;;;;14.82;7.70;;;;;;;7.79;64.13;100803.16;5095327;28;20048;-65
2022/03/27 04:51:52;;;;;;;12.48;7.05;;;;;;;7.77;63.41;100800.59;5095294;28;20048;-65
2022/03/27 04:54:21;;;;;;;14.73;7.50;;;;;;;7.75;63.63;100794.56;5095513;28;20109;-65
2022/03/27 04:56:50;;;;;;;16.40;7.53;;;;;;;7.75;64.12;100802.19;5095397;28;20115;-65
2022/03/27 04:59:19;;;;;;;13.45;7.43;;;;;;;7.87;63.80;100796.63;5095053;28;20494;-65
2022/03/27 05:01:50;;;;;;;11.55;5.82;;;;;;;7.92;63.01;100800.13;5095485;28;20489;-65
2022/03/27 05:04:19;;;;;;;13.98;7.10;;;;;;;7.95;63.10;100808.72;5095075;28;20051;-65
2022/03/27 05:06:48;;;;;;;13.95;6.82;;;;;;;7.96;63.22;100818.06;5095034;28;20043;-65
2022/03/27 05:09:18;;;;;;;16.10;7.10;;;;;;;7.97;62.98;100804.53;5095211;28;20490;-65
2022/03/27 05:11:46;;;;;;;;;;;;;;;8.09;62.73;100812.50;5095316;28;20127;-65
2022/03/27 05:14:15;;;;;;;12.10;6.43;;;;;;;8.07;62.52;100816.69;5095059;28;19943;-65
2022/03/27 05:16:44;;;;;;;9.23;5.20;;;;;;;8.10;62.77;100821.84;5094615;28;20040;-65
2022/03/27 05:19:15;;;;;;;12.93;6.90;;;;;;;8.10;62.45;100826.06;5095340;28;20460;-65
2022/03/27 05:21:44;;;;;;;14.63;6.35;;;;;;;8.24;62.05;100818.81;5094158;28;20434;-65
2022/03/27 05:24:13;;;;;;;14.32;7.25;;;;;;;8.42;61.70;100821.88;5094736;28;20051;-65
2022/03/27 05:26:42;;;;;;;11.30;4.93;;;;;;;8.62;61.83;100823.25;5094535;28;20040;-66
2022/03/27 05:29:10;;;;;;;13.48;7.60;;;;;;;8.82;60.46;100832.25;5094596;28;20040;-68
2022/03/27 05:31:39;;;;;;;11.80;6.63;;;;;;;8.76;60.57;100827.00;5094546;28;20036;-66
2022/03/27 05:34:08;;;;;;;13.87;7.00;;;;;;;8.86;61.14;100844.22;5094788;28;20556;-67
2022/03/27 05:36:39;;;;;;;14.00;7.73;;;;;;;9.04;60.50;100847.22;5094364;28;20046;-66
2022/03/27 05:39:08;;;;;;;13.40;6.80;;;;;;;9.16;59.79;100849.19;5094309;28;20044;-66
2022/03/27 05:41:37;;;;;;;17.38;6.63;;;;;;;9.26;59.43;100851.16;5094321;28;20044;-66
2022/03/27 05:44:06;;;;;;;11.95;6.10;;;;;;;9.56;58.37;100850.97;5093961;28;20036;-66
2022/03/27 05:46:35;;;;;;;;;;;;;;;9.72;58.01;100847.91;5094901;28;20585;-66
2022/03/27 05:49:04;;;;;;;13.70;7.32;;;;;;;9.98;57.19;100857.00;5094086;28;19924;-66
2022/03/27 05:51:33;;;;;;;11.43;6.93;;;;;;;10.17;57.05;100863.34;5094077;28;20051;-66
2022/03/27 05:54:03;;;;;;;16.35;7.53;;;;;;;10.29;56.68;100858.47;5094322;28;20367;-66
2022/03/27 05:56:32;;;;;;;13.25;6.97;;;;;;;10.43;56.09;100855.38;5093870;28;20059;-65
2022/03/27 05:59:01;;;;;;;13.38;6.82;;;;;;;10.63;56.63;100861.69;5093902;28;20122;-65
2022/03/27 06:01:30;;;;;;;12.07;6.83;;;;;;;10.62;55.91;100842.09;5093957;28;20044;-65
2022/03/27 06:03:59;;;;;;;14.35;7.18;;;;;;;10.84;55.98;100855.22;5093899;28;20044;-66
2022/03/27 06:06:29;;;;;;;10.55;6.53;;;;;;;10.96;55.57;100847.78;5093515;28;20036;-67
2022/03/27 06:08:58;;;;;;;;;;;;;;;11.08;54.57;100855.63;5093060;28;20039;-66
2022/03/27 06:11:29;;;;;;;12.88;6.85;;;;;;;11.30;53.84;100862.81;5094062;28;19920;-66
2022/03/27 06:13:58;;;;;;;11.40;7.63;;;;;;;11.37;53.98;100859.50;5093748;28;20044;-66
2022/03/27 06:16:27;;;;;;;12.68;7.05;;;;;;;11.46;54.42;100854.53;5093354;28;20074;-66
2022/03/27 06:18:56;;;;;;;14.10;6.60;;;;;;;11.44;54.22;100861.31;5093965;28;20113;-66
2022/03/27 06:21:27;;;;;;;11.50;6.53;;;;;;;11.59;53.69;100864.06;5093446;28;20040;-67
2022/03/27 06:23:56;;;;;;;14.10;7.13;;;;;;;11.72;52.54;100862.59;5093572;28;20079;-67
2022/03/27 06:26:25;;;;;;;12.57;7.83;;;;;;;11.73;52.84;100869.44;5093046;28;20490;-67
2022/03/27 06:28:56;;;;;;;15.82;8.18;;;;;;;11.91;52.21;100875.66;5093594;28;20054;-67
2022/03/27 06:31:25;;;;;;;12.88;7.07;;;;;;;12.25;51.95;100886.28;5093554;28;20052;-67
2022/03/27 06:33:54;;;;;;;13.15;7.85;;;;;;;12.31;51.32;100887.22;5093497;28;20051;-67
2022/03/27 06:36:23;;;;;;;9.30;5.67;;;;;;;12.12;51.85;100889.56;5093578;28;20068;-67
2022/03/27 06:38:52;;;;;;;15.88;8.32;;;;;;;12.35;51.58;100877.88;5093436;28;20044;-67
2022/03/27 06:41:21;;;;;;;14.73;8.50;;;;;;;12.53;50.86;100888.31;5093397;28;20048;-67
2022/03/27 06:43:50;;;;;;;12.63;8.20;;;;;;;12.65;50.39;100888.44;5093219;28;20048;-68
2022/03/27 06:46:21;;;;;;;14.25;8.50;;;;;;;12.60;48.98;100884.97;5092798;28;20032;-68
2022/03/27 06:48:51;;;;;;;16.20;8.63;;;;;;;12.65;48.71;100888.44;5093052;28;20040;-69
2022/03/27 06:51:20;;;;;;;13.93;8.75;;;;;;;12.71;48.59;100889.41;5092683;28;20063;-67
2022/03/27 06:53:49;;;;;;;12.30;7.97;;;;;;;12.74;48.35;100888.56;5092743;28;20097;-67
2022/03/27 06:56:18;;;;;;;14.30;7.93;;;;;;;12.88;48.13;100896.38;5090529;28;20436;-67
2022/03/27 06:58:47;;;;;;;12.57;7.55;;;;;;;12.95;47.59;100903.28;5092674;28;20048;-68
2022/03/27 07:03:57;;;;;;;14.95;8.02;;;;;;;13.08;48.41;100893.16;5087503;28;20056;-67
2022/03/27 07:06:26;;;;;;;13.52;8.43;;;;;;;13.28;46.97;100891.63;5093102;28;20075;-67
2022/03/27 07:08:55;;;;;;;15.95;8.10;;;;;;;13.32;45.94;100884.81;5093523;28;20509;-67
2022/03/27 07:11:24;;;;;;;16.27;8.23;;;;;;;13.42;45.49;100890.03;5093322;28;20494;-67
2022/03/27 07:13:53;;;;;;;15.23;8.75;;;;;;;13.38;45.79;100898.56;5093569;28;20047;-67
2022/03/27 07:16:24;;;;;;;14.25;8.48;;;;;;;13.41;45.63;100901.13;5093556;28;20498;-68
2022/03/27 07:18:53;;;;;;;17.60;9.07;;;;;;;13.53;46.21;100895.25;5052896;28;20215;-67
2022/03/27 07:21:24;;;;;;;13.70;7.65;;;;;;;13.37;44.81;100899.38;5052862;28;20040;-66
2022/03/27 07:23:53;;;;;;;14.38;8.20;;;;;;;13.49;44.85;100900.31;5052901;28;20437;-67
2022/03/27 07:26:22;;;;;;;14.98;8.50;;;;;;;13.32;44.49;100905.31;5052763;28;20037;-67
2022/03/27 07:28:51;;;;;;;15.30;9.07;;;;;;;13.56;44.39;100907.19;5052839;28;20044;-67
2022/03/27 07:31:20;;;;;;;14.40;8.73;;;;;;;13.92;44.07;100902.28;5052739;28;20514;-67
2022/03/27 07:33:49;;;;;;;14.47;8.20;;;;;;;14.01;43.64;100910.06;5052831;28;20503;-67
2022/03/27 07:36:18;;;;;;;11.77;7.50;;;;;;;14.23;43.65;100917.00;5052742;28;20394;-67
2022/03/27 07:38:49;;;;;;;13.40;8.20;;;;;;;13.85;43.21;100908.25;5056449;28;20071;-67
2022/03/27 07:41:18;;;;;;;14.35;8.23;;;;;;;13.91;44.09;100913.44;5056480;28;20040;-67
2022/03/27 07:43:47;;;;;;;13.77;8.55;;;;;;;14.27;43.78;100917.88;5056286;28;20132;-67
2022/03/27 07:46:16;;;;;;;15.68;8.35;;;;;;;14.49;44.25;100915.41;5056365;28;20056;-67
2022/03/27 07:48:45;;;;;;;14.00;7.37;;;;;;;14.41;43.60;100911.97;5056226;28;20043;-66
2022/03/27 07:51:14;;;;;;;14.57;8.13;;;;;;;14.58;42.31;100919.75;5055135;28;20146;-67
2022/03/27 07:53:43;;;;;;;14.40;7.82;;;;;;;14.66;42.53;100921.47;5052625;28;20041;-67
2022/03/27 07:56:14;;;;;;;13.73;7.95;;;;;;;14.42;41.97;100918.81;5055287;28;20037;-66
2022/03/27 07:58:46;;;;;;;13.55;7.20;;;;;;;14.40;41.93;100915.38;5054302;28;20053;-67
2022/03/27 08:01:15;;;;;;;12.23;7.65;;;;;;;14.24;41.77;100918.72;5055627;28;20279;-67
2022/03/27 08:03:45;;;;;;;12.80;8.18;;;;;;;14.71;41.14;100912.06;5055836;28;20144;-67
2022/03/27 08:06:14;;;;;;;14.90;7.60;;;;;;;14.76;40.70;100914.63;5054310;28;20045;-66
2022/03/27 08:08:44;;;;;;;14.10;8.77;;;;;;;15.03;40.89;100912.13;5055813;28;20049;-67
2022/03/27 08:11:14;;;;;;;9.80;5.67;;;;;;;15.02;40.04;100917.28;5055686;28;20139;-66
2022/03/27 08:13:44;;;;;;;12.43;7.43;;;;;;;15.06;39.50;100912.13;5056166;28;20483;-67
2022/03/27 08:16:13;;;;;;;11.30;7.32;;;;;;;15.25;40.67;100905.28;5055694;28;20411;-66
2022/03/27 08:18:43;;;;;;;16.30;8.37;;;;;;;15.17;39.29;100906.97;5092645;28;20102;-67
2022/03/27 08:21:12;;;;;;;12.13;7.95;;;;;;;15.20;39.59;100901.84;5095705;28;20066;-67
2022/03/27 08:23:41;;;;;;;12.67;7.27;;;;;;;15.61;40.40;100905.28;5095578;28;20098;-67
2022/03/27 08:28:50;;;;;;;13.60;7.28;;;;;;;15.59;39.32;100896.72;5095994;28;20277;-66
2022/03/27 08:31:19;;;;;;;15.57;8.70;;;;;;;15.61;39.08;100900.13;5093278;28;20052;-67
2022/03/27 08:33:48;;;;;;;14.02;8.10;;;;;;;15.72;39.84;100898.38;5095923;28;20144;-67
2022/03/27 08:36:17;;;;;;;14.13;7.60;;;;;;;15.99;38.59;100898.31;5095662;28;20561;-67
2022/03/27 08:38:46;;;;;;;9.63;5.28;;;;;;;15.46;38.42;100895.00;5095365;28;20036;-67
2022/03/27 08:41:17;;;;;;;13.83;7.83;;;;;;;15.47;38.07;100883.84;5095400;28;20137;-67
2022/03/27 08:43:47;;;;;;;10.23;6.63;;;;;;;15.36;37.29;100893.25;5094092;28;20462;-67
2022/03/27 08:46:18;;;;;;;11.93;7.38;;;;;;;15.33;38.03;100890.69;5095423;28;20044;-68
2022/03/27 08:48:51;;;;;;;12.70;6.97;;;;;;;15.70;37.02;100900.09;5095190;28;20410;-67
2022/03/27 08:51:29;;;;;;;13.05;7.50;;;;;;;15.56;36.66;100912.16;5095362;28;20555;-67
2022/03/27 08:54:02;;;;;;;13.57;7.25;;;;;;;15.61;36.88;100899.25;5095044;28;20047;-68
2022/03/27 08:56:33;;;;;;;13.68;7.20;;;;;;;15.93;36.45;100887.19;5095415;28;20048;-69
2022/03/27 08:59:08;;;;;;;12.77;6.93;;;;;;;15.92;36.65;100891.47;5095154;28;20150;-69
2022/03/27 09:01:39;;;;;;;11.00;6.03;;;;;;;16.50;37.28;100901.53;5095198;28;20048;-69
2022/03/27 09:04:08;;;;;;;13.27;7.45;;;;;;;16.83;37.03;100909.09;5094122;28;20138;-68
2022/03/27 09:06:37;;;;;;;11.90;7.28;;;;;;;16.97;36.22;100904.69;5095196;28;20494;-68
2022/03/27 09:09:07;;;;;;;10.13;6.80;;;;;;;16.75;35.32;100893.69;5095700;28;20547;-68
2022/03/27 09:11:37;;;;;;;10.63;6.40;;;;;;;16.89;34.91;100897.91;5094944;28;20044;-68
2022/03/27 09:14:10;;;;;;;9.45;6.10;;;;;;;16.75;34.98;100893.69;5094700;28;20502;-69
2022/03/27 09:17:00;;;;;;;12.70;6.53;;;;;;;16.47;35.05;100897.25;5094560;28;20058;-69
2022/03/27 09:19:36;;;;;;;11.63;6.75;;;;;;;16.08;34.95;100895.69;5094987;28;20043;-69
2022/03/27 09:22:14;;;;;;;10.77;5.75;;;;;;;16.46;34.78;100884.38;5094663;28;20048;-69
2022/03/27 09:24:46;;;;;;;10.32;6.13;;;;;;;16.80;34.02;100888.47;5094694;28;20044;-69
2022/03/27 09:27:15;;;;;;;12.18;6.20;;;;;;;17.13;33.31;100884.81;5094546;28;20050;-69
2022/03/27 09:29:57;;;;;;;11.80;6.22;;;;;;;17.31;33.07;100885.53;5094548;28;20064;-69
2022/03/27 09:32:26;;;;;;;11.82;6.35;;;;;;;17.38;32.48;100887.16;5093431;28;20061;-69
2022/03/27 09:35:01;;;;;;;11.82;6.43;;;;;;;17.29;32.58;100870.91;5094407;28;20063;-69
2022/03/27 09:37:36;;;;;;;10.80;6.38;;;;;;;17.94;33.45;100880.59;5094313;28;20139;-69
2022/03/27 09:40:06;;;;;;;10.20;6.10;;;;;;;18.10;31.95;100874.38;5094592;28;20072;-69
2022/03/27 09:42:36;;;;;;;10.75;6.05;;;;;;;17.89;32.59;100890.13;5094168;28;20106;-69
2022/03/27 09:45:13;;;;;;;11.15;5.88;;;;;;;17.70;31.85;100873.13;5094232;28;20059;-69
2022/03/27 09:47:44;;;;;;;10.20;5.47;;;;;;;17.69;31.28;100884.31;5094294;28;20098;-69
2022/03/27 09:50:32;;;;;;;9.98;6.13;;;;;;;17.49;31.17;100888.81;5092553;28;20096;-68
2022/03/27 09:53:19;;;;;;;11.30;5.95;;;;;;;17.17;31.75;100892.53;5093127;28;20048;-68
2022/03/27 09:55:53;;;;;;;9.25;5.25;;;;;;;17.05;31.41;100887.47;5094412;28;20069;-69
2022/03/27 09:58:33;;;;;;;10.05;5.50;;;;;;;17.32;31.30;100876.06;5093713;28;20044;-69
2022/03/27 10:01:10;;;;;;;8.50;5.68;;;;;;;16.97;31.17;100878.91;5093361;28;20052;-69
2022/03/27 10:04:00;;;;;;;9.13;5.40;;;;;;;17.20;30.65;100879.56;5094097;28;20127;-69
2022/03/27 10:06:36;;;;;;;8.38;5.07;;;;;;;18.18;30.81;100882.91;5093986;28;20044;-69
2022/03/27 10:09:07;;;;;;;9.45;5.43;;;;;;;17.73;30.00;100878.25;5093900;28;20071;-69
2022/03/27 10:11:37;;;;;;;8.82;5.07;;;;;;;17.88;29.65;100878.06;5093992;28;20036;-69
2022/03/27 10:14:07;;;;;;;9.15;5.47;;;;;;;18.13;30.10;100879.50;5093684;28;20519;-69
2022/03/27 10:16:38;;;;;;;9.52;5.38;;;;;;;18.23;29.55;100875.09;5093657;28;20048;-70
2022/03/27 10:19:14;;;;;;;10.60;5.15;;;;;;;18.15;29.18;100877.75;5093551;28;20101;-73
2022/03/27 10:21:46;;;;;;;6.70;4.40;;;;;;;18.26;28.97;100881.06;5093679;28;20045;-72
2022/03/27 10:24:16;;;;;;;9.43;5.15;;;;;;;18.58;29.76;100862.56;5093389;28;20440;-72
2022/03/27 10:26:47;;;;;;;9.25;4.35;;;;;;;18.46;28.39;100879.09;5093598;28;20563;-72
2022/03/27 10:29:16;;;;;;;7.20;4.68;;;;;;;18.22;28.38;100869.06;5092343;28;20044;-72
2022/03/27 10:31:45;;;;;;;7.65;4.80;;;;;;;19.04;28.36;100870.47;5102288;28;20043;-72
2022/03/27 10:34:15;;;;;;;7.07;3.95;;;;;;;19.79;29.11;100863.13;5113463;28;20040;-75
2022/03/27 10:36:54;;;;;;;8.40;4.55;;;;;;;19.96;28.56;100868.84;5113669;28;20043;-76
2022/03/27 10:39:26;;;;;;;6.55;4.25;;;;;;;19.34;26.99;100857.00;5095851;28;20459;-72
2022/03/27 10:42:04;;;;;;;6.85;4.18;;;;;;;19.44;27.56;100843.06;5113732;28;20055;-76
2022/03/27 10:44:39;;;;;;;7.22;4.65;;;;;;;19.61;27.95;100841.00;5113956;28;20055;-76
2022/03/27 10:47:13;;;;;;;8.10;4.70;;;;;;;19.74;27.47;100837.31;5113288;28;20435;-72
2022/03/27 10:49:43;;;;;;;6.53;4.10;;;;;;;20.31;28.05;100834.41;5113707;28;20039;-72
2022/03/27 10:52:14;;;;;;;;;;;;;;;20.65;28.12;100835.38;5114228;28;20044;-72
2022/03/27 10:54:57;;;;;;;7.40;3.60;;;;;;;20.77;27.91;100840.28;5113737;28;19923;-72
2022/03/27 10:57:31;;;;;;;7.22;3.95;;;;;;;20.26;25.55;100837.09;5113804;28;20439;-72
2022/03/27 11:00:00;;;;;;;5.30;3.47;;;;;;;20.03;24.62;100832.38;5113738;28;20048;-72
2022/03/27 11:02:49;;;;;;;6.03;3.42;;;;;;;19.99;24.44;100833.31;5113739;28;20081;-72
2022/03/27 11:05:46;;;;;;;5.15;3.28;;;;;;;19.57;25.89;100839.38;5113422;28;20036;-72
2022/03/27 11:08:36;;;;;;;6.38;3.33;;;;;;;20.11;26.05;100827.03;5106553;28;20040;-72
2022/03/27 11:11:07;;;;;;;7.35;3.58;;;;;;;19.74;26.26;100831.28;5114979;28;20085;-72
2022/03/27 11:13:40;;;;;;;6.13;3.55;;;;;;;20.00;25.02;100835.03;5117498;28;20112;-72
2022/03/27 11:16:12;;;;;;;6.97;3.33;;;;;;;20.61;25.91;100828.56;5117492;27;20409;-72
2022/03/27 11:18:43;;;;;;;5.55;3.35;;;;;;;20.43;24.16;100813.38;5117439;28;20051;-72
2022/03/27 11:21:13;;;;;;;7.60;3.30;;;;;;;20.25;23.35;100816.41;5117322;28;20048;-72
2022/03/27 11:23:43;;;;;;;6.68;3.40;;;;;;;19.49;23.92;100820.50;5117698;28;20515;-72
2022/03/27 11:26:34;;;;;;;5.00;2.80;;;;;;;19.57;24.17;100826.41;5099101;28;20485;-71
2022/03/27 11:29:21;;;;;;;6.07;3.20;;;;;;;19.66;23.41;100817.59;5117163;28;20052;-72
2022/03/27 11:32:07;;;;;;;5.90;2.97;;;;;;;19.74;22.77;100806.22;5117091;28;20055;-72
2022/03/27 11:34:37;;;;;;;4.95;2.95;;;;;;;19.75;22.30;100813.09;5117146;28;20109;-75
2022/03/27 11:37:22;;;;;;;4.43;2.63;;;;;;;20.56;23.86;100814.84;5115986;28;20540;-75
2022/03/27 11:39:53;;;;;;;5.47;2.95;;;;;;;21.06;22.38;100811.03;5117010;28;20131;-76
2022/03/27 11:42:33;;;;;;;4.78;3.00;;;;;;;20.28;21.89;100806.81;5117595;28;20465;-72
2022/03/27 11:45:18;;;;;;;5.53;2.95;;;;;;;21.11;23.52;100804.84;5116977;28;20047;-72
2022/03/27 11:47:50;;;;;;;4.97;2.60;;;;;;;21.62;23.40;100804.34;5116994;28;20040;-72
2022/03/27 11:50:23;;;;;;;4.07;2.58;;;;;;;21.43;21.66;100790.97;5116898;28;20049;-72
2022/03/27 11:52:52;;;;;;;5.10;2.78;;;;;;;21.26;22.68;100788.84;5117120;28;20435;-72